createdAt,value
2023-06-14T00:00:36.067Z,6.00
2023-06-14T00:03:40.253Z,7.30
2023-06-14T00:06:46.365Z,8.13
2023-06-14T00:09:50.012Z,7.57
2023-06-14T00:12:52.820Z,6.65
2023-06-14T00:15:56.681Z,8.20
2023-06-14T00:18:59.659Z,7.10
2023-06-14T00:22:03.101Z,8.00
2023-06-14T00:25:19.311Z,9.40
2023-06-14T00:28:27.275Z,5.43
2023-06-14T00:31:30.609Z,6.20
2023-06-14T00:34:33.773Z,6.07
2023-06-14T00:37:37.720Z,6.73
2023-06-14T00:40:40.829Z,8.25
2023-06-14T00:43:44.139Z,6.60
2023-06-14T00:46:47.335Z,6.50
2023-06-14T00:49:52.932Z,6.73
2023-06-14T00:52:56.157Z,7.43
2023-06-14T00:55:59.665Z,6.38
2023-06-14T00:59:04.135Z,6.55
2023-06-14T01:02:08.685Z,8.40
2023-06-14T01:05:17.485Z,6.33
2023-06-14T01:08:29.628Z,8.27
2023-06-14T01:11:38.933Z,6.68
2023-06-14T01:14:42.817Z,6.43
2023-06-14T01:17:48.211Z,7.32
2023-06-14T01:20:51.855Z,7.10
2023-06-14T01:23:58.073Z,6.63
2023-06-14T01:27:04.006Z,8.07
2023-06-14T01:30:07.967Z,13.43
2023-06-14T01:33:11.350Z,7.82
2023-06-14T01:36:16.531Z,8.87
2023-06-14T01:39:20.617Z,7.10
2023-06-14T01:42:28.352Z,7.22
2023-06-14T01:45:32.876Z,8.10
2023-06-14T01:48:37.084Z,7.32
2023-06-14T01:51:41.145Z,6.27
2023-06-14T01:54:48.909Z,7.23
2023-06-14T01:57:54.804Z,7.53
2023-06-14T02:01:02.205Z,8.48
2023-06-14T02:04:05.117Z,8.05
2023-06-14T02:07:11.685Z,7.47
2023-06-14T02:10:16.966Z,6.67
2023-06-14T02:13:20.879Z,7.63
2023-06-14T02:16:23.795Z,6.88
2023-06-14T02:19:27.697Z,7.43
2023-06-14T02:22:30.489Z,8.03
2023-06-14T02:25:34.557Z,6.97
2023-06-14T02:28:37.447Z,8.25
2023-06-14T02:31:42.247Z,8.93
2023-06-14T02:34:47.063Z,8.50
2023-06-14T02:37:52.284Z,8.13
2023-06-14T02:40:56.762Z,8.83
2023-06-14T02:44:00.943Z,8.98
2023-06-14T02:47:06.296Z,8.30
2023-06-14T02:50:10.096Z,7.50
2023-06-14T02:53:13.367Z,8.50
2023-06-14T02:56:18.678Z,8.70
2023-06-14T02:59:26.394Z,9.73
2023-06-14T03:02:33.597Z,9.65
2023-06-14T03:05:36.715Z,10.00
2023-06-14T03:08:40.307Z,9.83
2023-06-14T03:11:49.333Z,8.80
2023-06-14T03:14:54.461Z,11.05
2023-06-14T03:18:00.421Z,10.98
2023-06-14T03:21:04.706Z,11.23
2023-06-14T03:24:08.617Z,8.93
2023-06-14T03:27:12.084Z,9.57
2023-06-14T03:30:19.175Z,10.65
2023-06-14T03:33:26.652Z,10.15
2023-06-14T03:36:30.442Z,8.65
2023-06-14T03:39:34.156Z,8.67
2023-06-14T03:42:40.230Z,11.43
2023-06-14T03:45:43.207Z,10.77
2023-06-14T03:48:48.014Z,10.48
2023-06-14T03:51:52.611Z,12.27
2023-06-14T03:58:09.572Z,14.20
2023-06-14T04:01:14.064Z,12.82
2023-06-14T04:04:17.676Z,13.77
2023-06-14T04:07:21.854Z,11.43
2023-06-14T04:10:29.325Z,10.17
2023-06-14T04:13:36.279Z,11.17
2023-06-14T04:16:40.259Z,11.15
2023-06-14T04:19:43.077Z,10.90
2023-06-14T04:22:55.053Z,13.15
2023-06-14T04:26:03.021Z,12.77
2023-06-14T04:29:07.610Z,11.37
2023-06-14T04:32:20.226Z,12.20
2023-06-14T04:35:25.172Z,17.08
2023-06-14T04:38:35.936Z,12.10
2023-06-14T04:41:39.322Z,15.57
2023-06-14T04:44:44.727Z,12.73
2023-06-14T04:47:49.064Z,12.15
2023-06-14T04:50:54.253Z,17.33
2023-06-14T04:54:10.864Z,11.45
2023-06-14T04:57:26.717Z,16.33
2023-06-14T05:00:41.422Z,12.97
2023-06-14T05:03:50.566Z,14.85
2023-06-14T05:07:10.074Z,12.10
2023-06-14T05:10:33.177Z,12.93
2023-06-14T05:13:45.776Z,15.33
2023-06-14T05:17:03.701Z,16.23
2023-06-14T05:20:09.600Z,13.48
2023-06-14T05:23:16.734Z,12.23
2023-06-14T05:26:20.936Z,13.88
2023-06-14T05:29:23.849Z,11.10
2023-06-14T05:32:26.973Z,11.93
2023-06-14T05:35:33.456Z,11.07
2023-06-14T05:38:36.782Z,11.15
2023-06-14T05:41:40.601Z,11.85
2023-06-14T05:44:51.669Z,12.40
2023-06-14T05:47:58.259Z,13.63
2023-06-14T05:51:02.231Z,11.13
2023-06-14T05:54:06.294Z,12.23
2023-06-14T05:57:14.933Z,14.00
2023-06-14T06:00:19.173Z,12.57
2023-06-14T06:03:24.252Z,12.77
2023-06-14T06:06:30.401Z,17.15
2023-06-14T06:09:46.714Z,12.35
2023-06-14T06:12:50.649Z,13.68
2023-06-14T06:15:54.620Z,10.83
2023-06-14T06:18:58.546Z,11.17
2023-06-14T06:22:06.102Z,12.23
2023-06-14T06:25:10.007Z,11.07
2023-06-14T06:28:12.929Z,9.73
2023-06-14T06:31:18.300Z,14.40
2023-06-14T06:34:25.814Z,10.03
2023-06-14T06:37:29.113Z,13.13
2023-06-14T06:40:32.119Z,18.90
2023-06-14T06:43:34.958Z,13.52
2023-06-14T06:46:43.050Z,12.73
2023-06-14T06:49:46.420Z,10.93
2023-06-14T06:52:49.233Z,11.07
2023-06-14T06:56:01.649Z,11.88
2023-06-14T06:59:14.948Z,11.25
2023-06-14T07:02:21.410Z,9.23
2023-06-14T07:05:34.172Z,14.33
2023-06-14T07:08:42.616Z,10.68
2023-06-14T07:11:47.122Z,11.10
2023-06-14T07:14:56.812Z,10.48
2023-06-14T07:18:01.055Z,11.60
2023-06-14T07:21:41.820Z,9.87
2023-06-14T07:24:51.982Z,11.30
2023-06-14T07:27:57.495Z,10.52
2023-06-14T07:31:02.691Z,12.23
2023-06-14T07:34:21.968Z,14.07
2023-06-14T07:37:26.861Z,8.43
2023-06-14T07:40:31.044Z,11.60
2023-06-14T07:43:34.136Z,10.98
2023-06-14T07:46:37.547Z,11.98
2023-06-14T07:49:40.894Z,9.33
2023-06-14T07:52:43.984Z,10.80
2023-06-14T07:55:53.608Z,11.00
2023-06-14T07:58:57.885Z,9.48
2023-06-14T08:02:01.610Z,10.55
2023-06-14T08:05:05.892Z,12.07
2023-06-14T08:08:11.587Z,10.33
2023-06-14T08:11:14.686Z,10.38
2023-06-14T08:14:17.713Z,13.98
2023-06-14T08:17:31.886Z,11.65
2023-06-14T08:20:36.488Z,11.17
2023-06-14T08:23:39.275Z,12.27
2023-06-14T08:26:43.713Z,12.05
2023-06-14T08:29:48.054Z,12.02
2023-06-14T08:33:14.728Z,8.38
2023-06-14T08:36:19.375Z,13.37
2023-06-14T08:39:24.686Z,10.03
2023-06-14T08:42:32.428Z,14.02
2023-06-14T08:45:35.857Z,24.77
2023-06-14T08:48:40.538Z,8.13
2023-06-14T08:51:48.791Z,10.93
2023-06-14T08:54:52.596Z,12.87
2023-06-14T08:57:58.812Z,8.27
2023-06-14T09:01:06.348Z,11.38
2023-06-14T09:04:09.519Z,10.27
2023-06-14T09:07:14.098Z,13.93
2023-06-14T09:10:18.131Z,12.47
2023-06-14T09:13:25.752Z,8.63
2023-06-14T09:16:28.899Z,6.97
2023-06-14T09:19:31.912Z,9.48
2023-06-14T09:22:36.547Z,8.10
2023-06-14T09:25:49.654Z,9.40
2023-06-14T09:28:52.918Z,10.07
2023-06-14T09:31:57.162Z,9.68
2023-06-14T09:35:25.477Z,8.02
2023-06-14T09:38:43.587Z,8.20
2023-06-14T09:42:03.908Z,6.83
2023-06-14T09:45:09.381Z,10.43
2023-06-14T09:48:14.334Z,9.50
2023-06-14T09:51:43.828Z,6.95
2023-06-14T09:55:02.111Z,9.17
2023-06-14T09:58:08.009Z,8.00
2023-06-14T10:01:23.583Z,6.63
2023-06-14T10:04:29.518Z,8.45
2023-06-14T10:08:39.544Z,5.75
2023-06-14T10:11:47.508Z,4.00
2023-06-14T10:14:58.823Z,3.73
2023-06-14T10:18:23.680Z,4.38
2023-06-14T10:21:50.669Z,8.25
2023-06-14T10:24:54.490Z,6.43
2023-06-14T10:28:28.978Z,4.60
2023-06-14T10:31:48.889Z,6.10
2023-06-14T10:35:22.566Z,5.80
2023-06-14T10:38:34.473Z,5.75
2023-06-14T10:41:40.419Z,4.93
2023-06-14T10:50:28.345Z,5.50
2023-06-14T10:53:45.125Z,5.38
2023-06-14T10:57:39.057Z,9.63
2023-06-14T11:01:17.890Z,9.85
2023-06-14T11:05:01.368Z,5.97
2023-06-14T11:13:05.719Z,5.05
2023-06-14T11:27:47.629Z,4.80
2023-06-14T11:31:01.684Z,4.80
2023-06-14T11:34:16.381Z,5.63
2023-06-14T11:37:35.232Z,5.35
2023-06-14T11:40:40.526Z,6.20
2023-06-14T11:44:14.928Z,6.23
2023-06-14T11:47:38.241Z,8.73
2023-06-14T11:50:43.203Z,5.50
2023-06-14T11:54:28.949Z,8.10
2023-06-14T11:58:48.668Z,5.63
2023-06-14T12:02:06.045Z,6.63
2023-06-14T12:05:21.485Z,7.07
2023-06-14T12:08:41.271Z,7.22
2023-06-14T12:11:47.501Z,10.73
2023-06-14T12:14:53.001Z,11.18
2023-06-14T12:17:57.374Z,5.90
2023-06-14T12:21:08.970Z,8.20
2023-06-14T12:24:19.800Z,6.05
2023-06-14T12:27:42.830Z,7.75
2023-06-14T12:31:15.361Z,5.88
2023-06-14T12:34:38.245Z,5.27
2023-06-14T12:38:08.470Z,8.57
2023-06-14T12:41:35.650Z,6.65
2023-06-14T12:44:42.123Z,4.57
2023-06-14T12:47:45.373Z,4.90
2023-06-14T12:50:57.846Z,5.10
2023-06-14T12:54:11.672Z,5.20
2023-06-14T12:57:43.100Z,3.95
2023-06-14T13:02:18.247Z,5.10
2023-06-14T13:06:46.938Z,5.32
2023-06-14T13:10:03.143Z,5.60
2023-06-14T13:13:09.293Z,4.43
2023-06-14T13:16:16.942Z,7.60
2023-06-14T13:19:20.932Z,4.80
2023-06-14T13:25:48.181Z,4.97
2023-06-14T13:28:52.593Z,5.60
2023-06-14T13:31:59.284Z,6.05
2023-06-14T13:35:05.338Z,4.47
2023-06-14T13:38:23.102Z,5.32
2023-06-14T13:41:34.767Z,3.73
2023-06-14T13:44:39.785Z,20.30
2023-06-14T13:47:49.937Z,8.73
2023-06-14T13:50:53.940Z,6.15
2023-06-14T13:54:38.864Z,4.53
2023-06-14T13:58:45.383Z,6.37
2023-06-14T14:02:49.090Z,4.30
2023-06-14T14:06:03.911Z,3.53
2023-06-14T14:09:17.054Z,3.63
2023-06-14T14:12:20.442Z,4.22
2023-06-14T14:15:24.073Z,3.70
2023-06-14T14:18:28.641Z,6.03
2023-06-14T14:21:33.673Z,3.70
2023-06-14T14:24:36.536Z,4.07
2023-06-14T14:27:40.915Z,5.40
2023-06-14T14:30:44.539Z,3.33
2023-06-14T14:33:47.707Z,4.00
2023-06-14T14:36:50.548Z,4.32
2023-06-14T14:39:53.333Z,5.72
2023-06-14T14:42:56.269Z,3.50
2023-06-14T14:45:59.116Z,3.43
2023-06-14T14:49:02.108Z,4.30
2023-06-14T14:52:22.212Z,3.63
2023-06-14T14:55:26.702Z,4.15
2023-06-14T14:58:29.460Z,4.00
2023-06-14T15:01:32.270Z,4.27
2023-06-14T15:04:35.566Z,3.63
2023-06-14T15:07:42.927Z,3.00
2023-06-14T15:10:46.387Z,5.43
2023-06-14T15:13:50.262Z,4.70
2023-06-14T15:16:53.256Z,5.47
2023-06-14T15:19:56.931Z,5.57
2023-06-14T15:23:02.716Z,6.68
2023-06-14T15:26:06.032Z,3.40
2023-06-14T15:29:09.021Z,6.22
2023-06-14T15:32:12.867Z,4.57
2023-06-14T15:35:19.076Z,4.33
2023-06-14T15:38:24.192Z,4.35
2023-06-14T15:41:30.358Z,3.17
2023-06-14T15:44:33.657Z,4.72
2023-06-14T15:47:36.478Z,4.63
2023-06-14T15:50:42.367Z,4.17
2023-06-14T15:53:45.110Z,4.80
2023-06-14T15:56:48.900Z,4.50
2023-06-14T15:59:53.646Z,5.93
2023-06-14T16:02:57.515Z,4.20
2023-06-14T16:06:01.454Z,4.03
2023-06-14T16:09:05.094Z,5.95
2023-06-14T16:12:08.829Z,4.28
2023-06-14T16:15:11.943Z,4.15
2023-06-14T16:18:14.995Z,3.33
2023-06-14T16:21:17.914Z,5.40
2023-06-14T16:24:26.318Z,3.67
2023-06-14T16:27:29.074Z,5.32
2023-06-14T16:30:31.813Z,3.85
2023-06-14T16:33:34.541Z,3.60
2023-06-14T16:36:39.101Z,5.50
2023-06-14T16:39:42.829Z,5.20
2023-06-14T16:42:45.658Z,4.20
2023-06-14T16:45:49.341Z,3.60
2023-06-14T16:48:52.087Z,7.50
2023-06-14T16:51:55.795Z,4.70
2023-06-14T16:54:58.463Z,3.60
2023-06-14T16:58:01.939Z,5.78
2023-06-14T17:01:04.792Z,4.63
2023-06-14T17:04:10.343Z,3.67
2023-06-14T17:07:13.266Z,3.60
2023-06-14T17:10:17.070Z,5.72
2023-06-14T17:13:21.570Z,5.45
2023-06-14T17:16:24.835Z,5.07
2023-06-14T17:19:27.819Z,4.60
2023-06-14T17:22:31.926Z,5.97
2023-06-14T17:25:41.490Z,8.18
2023-06-14T17:28:44.874Z,6.43
2023-06-14T17:31:47.797Z,6.18
2023-06-14T17:34:50.622Z,5.07
2023-06-14T17:37:53.357Z,5.73
2023-06-14T17:40:56.869Z,4.13
2023-06-14T17:43:59.739Z,4.97
2023-06-14T17:47:02.794Z,5.45
2023-06-14T17:51:02.685Z,7.17
2023-06-14T17:54:25.552Z,5.37
2023-06-14T17:59:01.822Z,4.70
2023-06-14T18:07:37.637Z,5.00
2023-06-14T18:20:11.856Z,4.43
2023-06-14T18:23:52.965Z,6.95
2023-06-14T18:27:33.761Z,3.60
2023-06-14T18:35:44.983Z,7.47
2023-06-14T18:38:48.164Z,3.85
2023-06-14T18:42:01.328Z,5.18
2023-06-14T18:45:09.987Z,4.28
2023-06-14T18:48:18.483Z,5.17
2023-06-14T18:51:27.542Z,5.17
2023-06-14T18:54:38.310Z,4.60
2023-06-14T18:57:41.967Z,5.35
2023-06-14T19:00:55.114Z,7.38
2023-06-14T19:04:18.054Z,5.23
2023-06-14T19:07:33.169Z,5.57
2023-06-14T19:10:38.021Z,5.03
2023-06-14T19:13:44.900Z,5.80
2023-06-14T19:16:56.430Z,5.15
2023-06-14T19:20:03.761Z,5.23
2023-06-14T19:23:08.104Z,4.27
2023-06-14T19:26:16.165Z,6.50
2023-06-14T19:29:19.274Z,6.05
2023-06-14T19:32:22.424Z,6.78
2023-06-14T19:35:26.511Z,9.60
2023-06-14T19:38:33.726Z,4.47
2023-06-14T19:41:46.987Z,4.95
2023-06-14T19:44:52.187Z,8.63
2023-06-14T19:48:15.423Z,8.77
2023-06-14T19:51:34.084Z,4.40
2023-06-14T19:54:47.108Z,4.77
2023-06-14T19:58:09.810Z,5.15
2023-06-14T20:01:27.217Z,5.25
2023-06-14T20:04:31.429Z,5.32
2023-06-14T20:07:38.275Z,5.83
2023-06-14T20:10:42.964Z,6.27
2023-06-14T20:13:50.057Z,6.97
2023-06-14T20:16:55.226Z,5.15
2023-06-14T20:20:03.147Z,7.55
2023-06-14T20:23:18.864Z,7.83
2023-06-14T20:26:29.240Z,6.00
2023-06-14T20:29:34.589Z,5.00
2023-06-14T20:32:41.348Z,7.45
2023-06-14T20:35:49.070Z,5.47
2023-06-14T20:39:02.814Z,5.77
2023-06-14T20:42:25.536Z,8.93
2023-06-14T20:45:34.320Z,6.32
2023-06-14T20:48:38.773Z,6.97
2023-06-14T20:51:47.848Z,5.55
2023-06-14T20:54:51.080Z,7.07
2023-06-14T20:57:55.226Z,5.67
2023-06-14T21:00:57.969Z,5.50
2023-06-14T21:04:01.887Z,5.88
2023-06-14T21:07:06.855Z,5.63
2023-06-14T21:10:10.785Z,6.47
2023-06-14T21:13:13.665Z,5.17
2023-06-14T21:16:17.325Z,5.53
2023-06-14T21:19:21.242Z,5.45
2023-06-14T21:22:24.648Z,5.85
2023-06-14T21:25:28.088Z,6.90
2023-06-14T21:28:31.628Z,6.23
2023-06-14T21:31:34.503Z,8.85
2023-06-14T21:34:41.860Z,7.65
2023-06-14T21:37:44.734Z,7.45
2023-06-14T21:40:47.414Z,5.70
2023-06-14T21:43:50.135Z,7.13
2023-06-14T21:46:53.863Z,5.45
2023-06-14T21:49:58.103Z,6.00
2023-06-14T21:53:02.799Z,7.72
2023-06-14T21:56:07.592Z,5.40
2023-06-14T21:59:11.157Z,6.33
2023-06-14T22:02:17.042Z,6.45
2023-06-14T22:05:20.009Z,6.55
2023-06-14T22:08:22.837Z,5.25
2023-06-14T22:11:35.142Z,7.17
2023-06-14T22:14:38.780Z,8.70
2023-06-14T22:17:42.472Z,5.82
2023-06-14T22:20:46.280Z,8.35
2023-06-14T22:23:49.725Z,7.43
2023-06-14T22:26:57.557Z,7.57
2023-06-14T22:30:00.457Z,5.40
2023-06-14T22:33:04.541Z,8.63
2023-06-14T22:36:12.537Z,6.40
2023-06-14T22:39:15.745Z,8.05
2023-06-14T22:42:22.725Z,6.00
2023-06-14T22:45:28.682Z,7.07
2023-06-14T22:48:45.282Z,7.72
2023-06-14T22:51:56.660Z,5.13
2023-06-14T22:54:59.494Z,6.00
2023-06-14T22:58:03.158Z,5.73
2023-06-14T23:01:15.517Z,6.17
2023-06-14T23:04:22.117Z,8.30
2023-06-14T23:07:27.812Z,7.18
2023-06-14T23:10:31.262Z,5.72
2023-06-14T23:13:34.120Z,5.80
2023-06-14T23:16:36.839Z,6.60
2023-06-14T23:19:39.604Z,6.35
2023-06-14T23:22:44.671Z,5.88
2023-06-14T23:25:55.449Z,5.18
2023-06-14T23:28:58.349Z,6.53
2023-06-14T23:32:03.345Z,8.17
2023-06-14T23:35:10.492Z,4.90
2023-06-14T23:38:13.779Z,8.13
2023-06-14T23:41:17.555Z,5.25
2023-06-14T23:44:22.705Z,6.43
2023-06-14T23:47:25.699Z,5.53
2023-06-14T23:50:29.593Z,9.57
2023-06-14T23:53:34.996Z,7.03
2023-06-14T23:56:40.803Z,6.03
2023-06-14T23:59:44.310Z,6.60
